Time;durP1;ratioP1;P1;durP2;ratioP2;P2;SDS_P1;SDS_P2;PMS_P1;PMS_P2;Temp;Humidity;BMP_temperature;BMP_pressure;BME280_temperature;BME280_humidity;BME280_pressure;Samples;Min_cycle;Max_cycle;Signal;HPM_P1;HPM_P2
2022/06/07 00:01:03;;;;;;;10.98;5.35;;;20.10;99.90;;;;;;4973417;28;20057;-86
2022/06/07 00:03:29;;;;;;;9.32;5.40;;;20.10;99.90;;;;;;4989491;28;20494;-87
2022/06/07 00:05:55;;;;;;;12.82;4.78;;;20.10;99.90;;;;;;4988910;28;20050;-85
2022/06/07 00:08:22;;;;;;;6.72;5.03;;;20.10;99.90;;;;;;4989691;28;20065;-87
2022/06/07 00:10:48;;;;;;;12.20;5.05;;;20.10;99.90;;;;;;4991677;28;20030;-86
2022/06/07 00:13:15;;;;;;;7.25;4.90;;;20.10;99.90;;;;;;4991789;28;20486;-85
2022/06/07 00:15:42;;;;;;;6.35;4.82;;;20.00;99.90;;;;;;4992976;28;20083;-86
2022/06/07 00:18:10;;;;;;;9.60;5.07;;;20.00;99.90;;;;;;4989356;28;20038;-89
2022/06/07 00:20:37;;;;;;;7.72;5.38;;;20.00;99.90;;;;;;4986661;28;20022;-87
2022/06/07 00:23:06;;;;;;;10.13;5.53;;;19.90;99.90;;;;;;4986496;28;20030;-87
2022/06/07 00:25:32;;;;;;;8.35;5.05;;;19.90;99.90;;;;;;4988548;28;20086;-87
2022/06/07 00:27:59;;;;;;;9.02;5.10;;;19.80;99.90;;;;;;4988048;28;20038;-85
2022/06/07 00:30:26;;;;;;;7.82;5.22;;;19.80;99.90;;;;;;4987866;28;20050;-86
2022/06/07 00:32:53;;;;;;;7.70;5.10;;;19.80;99.90;;;;;;4987511;28;20058;-87
2022/06/07 00:35:19;;;;;;;8.90;5.25;;;19.80;99.90;;;;;;4988617;28;20030;-86
2022/06/07 00:37:45;;;;;;;10.25;5.03;;;19.70;99.90;;;;;;4988667;28;20027;-85
2022/06/07 00:40:12;;;;;;;9.70;4.90;;;19.70;99.90;;;;;;4985836;28;20131;-84
2022/06/07 00:42:38;;;;;;;7.95;4.85;;;19.70;99.90;;;;;;4987801;28;20025;-87
2022/06/07 00:45:05;;;;;;;8.95;5.80;;;19.70;99.90;;;;;;4986992;28;20067;-85
2022/06/07 00:47:32;;;;;;;10.13;5.47;;;19.60;99.90;;;;;;4987289;28;20034;-88
2022/06/07 00:50:08;;;;;;;9.57;5.65;;;19.60;99.90;;;;;;4982395;28;20054;-85
2022/06/07 00:52:35;;;;;;;8.77;5.30;;;19.60;99.90;;;;;;4981961;28;20393;-85
2022/06/07 00:55:03;;;;;;;7.05;5.18;;;19.60;99.90;;;;;;4983795;28;20034;-87
2022/06/07 00:57:35;;;;;;;9.05;5.20;;;19.60;99.90;;;;;;4986365;28;20062;-86
2022/06/07 01:00:08;;;;;;;7.65;5.22;;;19.60;99.90;;;;;;4976241;28;20037;-83
2022/06/07 01:02:34;;;;;;;6.95;5.07;;;19.60;99.90;;;;;;4997284;28;20046;-84
2022/06/07 01:05:01;;;;;;;8.95;5.40;;;19.60;99.90;;;;;;5000509;28;20034;-82
2022/06/07 01:12:59;;;;;;;7.03;5.37;;;19.70;99.90;;;;;;4989486;28;20091;-86
2022/06/07 01:15:28;;;;;;;13.35;5.63;;;19.60;99.90;;;;;;4988107;28;20256;-87
2022/06/07 01:17:56;;;;;;;8.30;5.10;;;19.60;99.90;;;;;;4998933;28;20017;-84
2022/06/07 01:20:22;;;;;;;8.63;5.43;;;19.60;99.90;;;;;;4999451;28;20035;-83
2022/06/07 01:22:48;;;;;;;9.30;4.97;;;19.60;99.90;;;;;;5000613;28;20019;-85
2022/06/07 01:25:14;;;;;;;7.75;5.75;;;19.50;99.90;;;;;;4983399;28;20030;-84
2022/06/07 01:27:40;;;;;;;6.32;5.03;;;19.50;99.90;;;;;;4998382;28;20026;-84
2022/06/07 01:30:07;;;;;;;8.13;5.25;;;19.50;99.90;;;;;;4987662;28;20111;-88
2022/06/07 01:32:33;;;;;;;8.85;5.88;;;19.40;99.90;;;;;;4990206;28;20007;-87
2022/06/07 01:34:59;;;;;;;9.88;6.38;;;19.30;99.90;;;;;;5000019;28;20019;-84
2022/06/07 01:37:25;;;;;;;7.28;5.72;;;19.30;99.90;;;;;;5000733;28;20111;-82
2022/06/07 01:42:36;;;;;;;11.07;5.80;;;19.30;99.90;;;;;;5000116;28;20046;-83
2022/06/07 01:45:02;;;;;;;8.55;6.28;;;19.20;99.90;;;;;;4994963;28;20407;-87
2022/06/07 01:47:32;;;;;;;7.93;5.30;;;19.20;99.90;;;;;;4986664;28;20031;-86
2022/06/07 01:50:00;;;;;;;9.32;5.22;;;19.30;99.90;;;;;;4985147;28;20080;-85
2022/06/07 01:52:30;;;;;;;8.38;5.78;;;19.30;99.90;;;;;;4969793;28;20041;-87
2022/06/07 01:55:05;;;;;;;7.85;5.35;;;19.30;99.90;;;;;;4990645;28;20097;-86
2022/06/07 01:57:38;;;;;;;8.30;5.63;;;19.20;99.90;;;;;;4991020;28;20027;-86
2022/06/07 02:00:09;;;;;;;7.82;5.55;;;19.20;99.90;;;;;;4989094;28;20038;-83
2022/06/07 02:02:46;;;;;;;11.43;6.03;;;19.10;99.90;;;;;;4991018;28;20022;-85
2022/06/07 02:05:13;;;;;;;9.75;5.80;;;19.10;99.90;;;;;;4990131;28;20038;-88
2022/06/07 02:07:43;;;;;;;8.00;5.35;;;19.00;99.90;;;;;;4990999;28;20045;-86
2022/06/07 02:10:13;;;;;;;7.93;5.57;;;19.00;99.90;;;;;;5004282;23;20334;-77
2022/06/07 02:12:39;;;;;;;8.32;5.93;;;19.00;99.90;;;;;;4963004;28;20030;-79
2022/06/07 02:15:06;;;;;;;7.35;5.50;;;19.00;99.90;;;;;;4963863;28;20035;-78
2022/06/07 02:17:31;;;;;;;7.15;5.40;;;19.00;99.90;;;;;;4961865;29;20035;-78
2022/06/07 02:20:12;;;;;;;11.75;5.97;;;19.00;99.90;;;;;;4952424;28;20510;-77
2022/06/07 02:22:38;;;;;;;10.38;6.03;;;19.00;99.90;;;;;;4925654;29;20031;-78
2022/06/07 02:25:04;;;;;;;8.98;6.30;;;19.00;99.90;;;;;;4942493;29;20217;-78
2022/06/07 02:27:30;;;;;;;7.30;5.65;;;19.00;99.90;;;;;;4941578;29;20059;-79
2022/06/07 02:29:56;;;;;;;7.65;5.78;;;18.90;99.90;;;;;;4940247;29;20088;-79
2022/06/07 02:32:29;;;;;;;6.93;5.90;;;18.90;99.90;;;;;;4924296;29;20114;-78
2022/06/07 02:34:58;;;;;;;6.53;5.47;;;18.90;99.90;;;;;;4940967;29;20130;-79
2022/06/07 02:37:26;;;;;;;7.20;5.43;;;19.00;99.90;;;;;;4923939;29;20032;-77
2022/06/07 02:39:53;;;;;;;8.93;5.88;;;19.00;99.90;;;;;;4941222;29;20122;-79
2022/06/07 02:42:23;;;;;;;7.05;5.43;;;19.10;99.90;;;;;;4942791;29;20047;-78
2022/06/07 02:44:48;;;;;;;7.30;5.70;;;19.10;99.90;;;;;;4940366;29;20038;-79
2022/06/07 02:47:14;;;;;;;8.40;5.88;;;19.10;99.90;;;;;;4940137;29;20031;-79
2022/06/07 02:49:45;;;;;;;8.90;5.93;;;19.10;99.90;;;;;;4943307;29;20046;-79
2022/06/07 02:52:11;;;;;;;7.75;5.82;;;19.10;99.90;;;;;;4941528;29;20036;-77
2022/06/07 02:54:44;;;;;;;7.95;5.72;;;19.10;99.90;;;;;;4939160;29;20132;-79
2022/06/07 02:57:11;;;;;;;9.20;5.90;;;19.10;99.90;;;;;;4941189;29;20090;-77
2022/06/07 02:59:38;;;;;;;7.90;6.28;;;19.00;99.90;;;;;;4938351;29;20479;-80
2022/06/07 03:02:05;;;;;;;8.35;6.57;;;19.00;99.90;;;;;;4939172;29;20035;-78
2022/06/07 03:04:33;;;;;;;10.43;6.18;;;19.00;99.90;;;;;;4938992;29;20095;-79
2022/06/07 03:07:01;;;;;;;10.20;6.45;;;19.00;99.90;;;;;;4940802;29;20035;-79
2022/06/07 03:09:27;;;;;;;10.45;6.30;;;18.90;99.90;;;;;;4939226;29;20119;-79
2022/06/07 03:11:53;;;;;;;13.20;5.78;;;18.90;99.90;;;;;;4941870;29;20115;-77
2022/06/07 03:14:19;;;;;;;8.82;6.18;;;18.90;99.90;;;;;;4938934;29;20031;-77
2022/06/07 03:16:45;;;;;;;8.13;5.95;;;18.90;99.90;;;;;;4938528;29;20035;-78
2022/06/07 03:19:12;;;;;;;10.93;6.40;;;18.90;99.90;;;;;;4938999;29;20024;-79
2022/06/07 03:21:40;;;;;;;11.57;6.60;;;18.80;99.90;;;;;;4939609;29;20051;-79
2022/06/07 03:24:07;;;;;;;12.00;7.03;;;18.80;99.90;;;;;;4938053;29;20115;-78
2022/06/07 03:26:34;;;;;;;11.15;6.43;;;18.60;99.90;;;;;;4938689;29;20031;-80
2022/06/07 03:29:07;;;;;;;11.23;7.60;;;18.60;99.90;;;;;;4944415;29;20108;-78
2022/06/07 03:31:33;;;;;;;10.10;7.22;;;18.60;99.90;;;;;;4927644;29;20806;-79
2022/06/07 03:34:03;;;;;;;11.10;7.40;;;18.60;99.90;;;;;;4942560;29;20138;-80
2022/06/07 03:36:35;;;;;;;12.43;7.70;;;18.50;99.90;;;;;;4937861;29;20035;-79
2022/06/07 03:39:06;;;;;;;11.38;7.13;;;18.50;99.90;;;;;;4937326;29;20054;-79
2022/06/07 03:41:35;;;;;;;11.52;7.53;;;18.50;99.90;;;;;;4921788;29;20456;-80
2022/06/07 03:44:08;;;;;;;9.95;7.72;;;18.50;99.90;;;;;;4938220;29;20082;-79
2022/06/07 03:46:37;;;;;;;15.02;7.95;;;18.50;99.90;;;;;;4937745;29;20074;-79
2022/06/07 03:49:03;;;;;;;9.13;7.70;;;18.50;99.90;;;;;;4937573;29;20059;-78
2022/06/07 03:51:31;;;;;;;10.50;7.70;;;18.50;99.90;;;;;;4951843;29;20043;-80
2022/06/07 03:53:58;;;;;;;11.40;7.90;;;18.50;99.90;;;;;;4947007;29;20051;-78
2022/06/07 03:56:27;;;;;;;11.27;7.88;;;18.50;99.90;;;;;;4943247;29;20119;-78
2022/06/07 03:58:56;;;;;;;13.80;8.13;;;18.50;99.90;;;;;;4939757;29;20032;-79
2022/06/07 04:01:24;;;;;;;11.50;8.05;;;18.50;99.90;;;;;;4936829;29;20436;-78
2022/06/07 04:03:54;;;;;;;13.85;8.82;;;18.60;99.90;;;;;;4936849;29;20020;-80
2022/06/07 04:06:30;;;;;;;14.65;7.55;;;18.60;99.90;;;;;;4940685;29;20040;-78
2022/06/07 04:09:03;;;;;;;10.93;7.55;;;18.60;99.90;;;;;;4941532;29;20094;-77
2022/06/07 04:11:33;;;;;;;13.05;8.20;;;18.60;99.90;;;;;;4944226;29;20031;-78
2022/06/07 04:14:01;;;;;;;15.80;8.20;;;18.60;99.90;;;;;;4948275;29;20023;-77
2022/06/07 04:16:29;;;;;;;12.85;8.48;;;18.60;99.90;;;;;;4938821;29;20039;-81
2022/06/07 04:19:01;;;;;;;9.35;7.80;;;18.60;99.90;;;;;;4939473;29;20031;-79
2022/06/07 04:21:27;;;;;;;9.98;7.22;;;18.60;99.90;;;;;;4942432;29;20478;-80
2022/06/07 04:24:03;;;;;;;10.80;7.60;;;18.70;99.90;;;;;;4937268;29;20024;-80
2022/06/07 04:26:32;;;;;;;9.63;7.28;;;18.80;99.90;;;;;;4938082;29;20463;-79
2022/06/07 04:28:59;;;;;;;9.32;7.55;;;18.90;99.90;;;;;;4943826;29;20036;-79
2022/06/07 04:31:26;;;;;;;13.02;7.10;;;19.00;99.90;;;;;;4942799;29;20040;-80
2022/06/07 04:33:57;;;;;;;12.30;7.38;;;19.20;99.90;;;;;;4937823;29;20444;-80
2022/06/07 04:36:26;;;;;;;9.45;6.93;;;19.30;99.90;;;;;;4943491;29;20040;-79
2022/06/07 04:38:56;;;;;;;9.55;7.63;;;19.40;99.90;;;;;;4947845;29;20020;-79
2022/06/07 04:41:28;;;;;;;10.83;7.47;;;19.50;99.90;;;;;;4951937;29;20098;-78
2022/06/07 04:44:00;;;;;;;11.93;7.65;;;19.60;99.90;;;;;;4958480;29;20023;-79
2022/06/07 04:46:28;;;;;;;17.40;7.88;;;19.70;99.90;;;;;;4958173;29;20035;-79
2022/06/07 04:48:57;;;;;;;11.88;7.68;;;19.90;99.90;;;;;;4958125;29;20395;-79
2022/06/07 04:51:30;;;;;;;13.05;7.00;;;20.10;99.90;;;;;;4949111;29;20380;-80
2022/06/07 04:54:05;;;;;;;11.02;7.32;;;20.30;99.90;;;;;;4943701;29;20088;-81
2022/06/07 04:56:37;;;;;;;10.35;7.68;;;20.40;99.90;;;;;;4955040;29;20046;-80
2022/06/07 04:59:05;;;;;;;11.38;6.90;;;20.50;99.90;;;;;;4957789;29;20032;-79
2022/06/07 05:01:41;;;;;;;12.32;6.70;;;20.40;99.90;;;;;;4957478;29;20027;-79
2022/06/07 05:04:12;;;;;;;12.05;6.88;;;20.60;99.90;;;;;;4949243;29;20039;-79
2022/06/07 05:06:42;;;;;;;9.90;7.10;;;20.70;99.90;;;;;;4945960;29;20036;-79
2022/06/07 05:09:27;;;;;;;11.73;7.20;;;20.80;99.90;;;;;;4946221;29;20503;-79
2022/06/07 05:12:02;;;;;;;14.10;6.90;;;20.90;99.90;;;;;;4945844;29;20051;-80
2022/06/07 05:14:33;;;;;;;13.65;6.88;;;20.90;99.90;;;;;;4954383;29;20030;-81
2022/06/07 05:16:59;;;;;;;9.95;6.93;;;20.90;99.90;;;;;;4961435;29;20043;-81
2022/06/07 05:19:29;;;;;;;11.57;7.15;;;21.00;99.90;;;;;;4961820;28;20639;-80
2022/06/07 05:22:03;;;;;;;13.43;7.15;;;21.00;99.90;;;;;;4947478;29;20024;-80
2022/06/07 05:24:34;;;;;;;9.45;6.95;;;21.10;99.90;;;;;;4945722;29;20054;-81
2022/06/07 05:27:03;;;;;;;11.50;6.88;;;21.10;99.90;;;;;;4946541;29;20039;-81
2022/06/07 05:29:48;;;;;;;13.13;6.82;;;21.20;99.90;;;;;;4944019;29;20124;-80
2022/06/07 05:32:24;;;;;;;8.80;6.75;;;21.30;99.90;;;;;;4943014;29;20051;-80
2022/06/07 05:34:52;;;;;;;13.65;7.05;;;21.40;99.90;;;;;;4928018;29;20098;-80
2022/06/07 05:37:22;;;;;;;17.38;7.30;;;21.50;99.90;;;;;;4944401;29;20372;-80
2022/06/07 05:39:58;;;;;;;13.27;7.45;;;21.60;99.90;;;;;;4941137;29;20023;-79
2022/06/07 05:42:24;;;;;;;9.57;6.85;;;21.50;99.90;;;;;;4941419;29;20028;-80
2022/06/07 05:44:50;;;;;;;8.95;6.40;;;21.70;99.90;;;;;;4925330;29;20024;-80
2022/06/07 05:47:17;;;;;;;11.60;6.82;;;21.70;99.90;;;;;;4941322;29;20036;-81
2022/06/07 05:49:48;;;;;;;10.65;6.95;;;21.70;99.90;;;;;;4941271;29;20036;-80
2022/06/07 05:52:19;;;;;;;16.85;6.82;;;21.90;99.90;;;;;;4945239;29;20446;-81
2022/06/07 05:54:46;;;;;;;16.13;6.97;;;22.00;99.90;;;;;;4944469;29;20032;-80
2022/06/07 05:57:13;;;;;;;14.52;6.97;;;22.10;99.90;;;;;;4946438;29;20023;-79
2022/06/07 05:59:41;;;;;;;9.88;6.68;;;22.20;99.90;;;;;;4952304;29;20038;-80
2022/06/07 06:02:10;;;;;;;12.07;7.43;;;22.30;99.90;;;;;;4949396;29;20035;-80
2022/06/07 06:04:39;;;;;;;10.85;6.80;;;22.50;99.90;;;;;;4943600;29;20108;-81
2022/06/07 06:07:06;;;;;;;9.63;6.20;;;22.50;99.90;;;;;;4942952;29;20031;-81
2022/06/07 06:12:21;;;;;;;12.98;6.60;;;22.70;99.90;;;;;;4942506;29;20035;-81
2022/06/07 06:15:13;;;;;;;7.72;5.88;;;22.90;99.90;;;;;;4944375;29;20031;-81
2022/06/07 06:17:40;;;;;;;10.07;6.18;;;23.10;99.90;;;;;;4945654;29;20074;-81
2022/06/07 06:20:26;;;;;;;10.15;5.55;;;23.20;99.90;;;;;;4942473;29;20040;-82
2022/06/07 06:22:54;;;;;;;13.20;6.22;;;23.30;99.90;;;;;;4942529;29;20036;-81
2022/06/07 06:25:20;;;;;;;9.18;6.30;;;23.20;99.90;;;;;;4943759;29;20024;-80
2022/06/07 06:27:48;;;;;;;12.77;6.45;;;23.30;99.90;;;;;;4943224;29;20059;-81
2022/06/07 06:30:13;;;;;;;9.98;6.18;;;23.30;99.90;;;;;;4945241;29;20050;-82
2022/06/07 06:32:49;;;;;;;8.18;5.93;;;23.30;99.90;;;;;;4944758;29;20039;-80
2022/06/07 06:35:19;;;;;;;12.35;6.50;;;23.10;99.90;;;;;;4944927;29;20038;-80
2022/06/07 06:37:45;;;;;;;11.25;6.68;;;23.20;99.90;;;;;;4939943;29;20049;-80
2022/06/07 06:40:12;;;;;;;17.95;6.13;;;23.20;99.90;;;;;;4940074;29;20034;-79
2022/06/07 06:42:46;;;;;;;;;;;23.30;99.90;;;;;;4946011;29;20078;-80
2022/06/07 06:45:29;;;;;;;8.73;6.03;;;23.40;99.90;;;;;;4955560;29;20314;-79
2022/06/07 06:48:00;;;;;;;12.52;6.28;;;23.70;99.90;;;;;;4943280;28;20035;-80
2022/06/07 06:50:28;;;;;;;6.88;4.97;;;24.10;99.90;;;;;;4943930;29;20066;-78
2022/06/07 06:52:55;;;;;;;7.97;5.10;;;24.20;99.90;;;;;;4962383;28;20023;-80
2022/06/07 06:55:21;;;;;;;9.25;5.43;;;24.30;99.90;;;;;;4959456;29;20035;-79
2022/06/07 06:57:49;;;;;;;10.13;5.20;;;24.40;99.90;;;;;;4938980;29;20138;-82
2022/06/07 07:00:16;;;;;;;13.88;6.28;;;24.50;99.90;;;;;;4923226;29;20032;-80
2022/06/07 07:02:46;;;;;;;14.38;6.05;;;24.50;99.90;;;;;;4940442;29;20059;-79
2022/06/07 07:05:16;;;;;;;7.95;4.93;;;24.40;99.90;;;;;;4922339;29;20358;-79
2022/06/07 07:07:48;;;;;;;8.00;4.75;;;24.40;99.90;;;;;;4950553;29;20065;-79
2022/06/07 07:10:25;;;;;;;11.60;5.57;;;24.50;99.90;;;;;;4939165;29;20071;-80
2022/06/07 07:12:51;;;;;;;7.20;5.28;;;24.50;99.90;;;;;;4939283;29;20051;-80
2022/06/07 07:15:20;;;;;;;10.60;5.60;;;24.40;99.90;;;;;;4938198;29;20046;-79
2022/06/07 07:17:52;;;;;;;13.05;6.10;;;24.40;99.90;;;;;;4938628;29;20032;-79
2022/06/07 07:20:20;;;;;;;8.57;5.45;;;24.30;99.90;;;;;;4945588;29;20031;-78
2022/06/07 07:22:49;;;;;;;8.57;5.35;;;24.40;99.90;;;;;;4941716;29;20031;-81
2022/06/07 07:25:16;;;;;;;8.60;5.70;;;24.30;99.90;;;;;;4939955;29;20040;-79
2022/06/07 07:27:42;;;;;;;12.13;5.97;;;24.40;99.90;;;;;;4941675;29;20112;-80
2022/06/07 07:30:09;;;;;;;8.93;5.07;;;24.60;99.90;;;;;;4941869;29;20082;-79
2022/06/07 07:32:38;;;;;;;12.88;8.23;;;24.80;99.90;;;;;;4941073;29;20644;-78
2022/06/07 07:35:05;;;;;;;7.18;4.38;;;25.20;99.90;;;;;;4939955;29;20039;-80
2022/06/07 07:37:39;;;;;;;;;;;25.50;99.90;;;;;;4942049;29;20079;-78
2022/06/07 07:40:12;;;;;;;9.48;5.43;;;25.70;99.90;;;;;;4940970;29;20115;-79
2022/06/07 07:42:38;;;;;;;7.25;4.65;;;25.90;99.90;;;;;;4930007;29;20511;-79
2022/06/07 07:45:10;;;;;;;7.68;4.38;;;26.00;99.90;;;;;;4936855;29;20020;-79
2022/06/07 07:47:37;;;;;;;8.32;4.78;;;26.10;99.90;;;;;;4926886;29;20553;-79
2022/06/07 07:50:03;;;;;;;11.23;4.85;;;26.30;99.90;;;;;;4919576;29;20028;-80
2022/06/07 07:52:31;;;;;;;7.28;4.07;;;26.50;99.90;;;;;;4918764;29;20036;-80
2022/06/07 07:55:02;;;;;;;7.13;4.75;;;26.70;99.90;;;;;;4923663;29;20024;-79
2022/06/07 07:57:28;;;;;;;9.57;4.32;;;26.70;99.90;;;;;;4922969;29;20067;-80
2022/06/07 07:59:55;;;;;;;6.22;4.35;;;27.10;99.90;;;;;;4921120;29;20458;-78
2022/06/07 08:02:22;;;;;;;8.57;4.50;;;27.30;99.90;;;;;;4936218;29;20032;-80
2022/06/07 08:04:59;;;;;;;7.63;4.20;;;27.30;99.90;;;;;;4929630;29;20127;-79
2022/06/07 08:07:25;;;;;;;8.65;5.30;;;27.20;99.90;;;;;;4940356;29;20039;-80
2022/06/07 08:09:51;;;;;;;6.50;4.30;;;27.30;99.90;;;;;;4937814;29;20035;-79
2022/06/07 08:12:16;;;;;;;5.88;4.60;;;27.20;99.90;;;;;;4956708;23;20054;-89
2022/06/07 08:14:42;;;;;;;10.00;4.28;;;27.30;99.90;;;;;;4947810;29;20054;-87
2022/06/07 08:17:08;;;;;;;6.85;4.90;;;27.50;99.90;;;;;;4962973;29;20555;-88
2022/06/07 08:19:34;;;;;;;7.35;4.68;;;27.70;99.90;;;;;;4947694;29;20035;-89
2022/06/07 08:22:01;;;;;;;5.82;3.75;;;27.60;99.90;;;;;;4948644;29;20032;-89
2022/06/07 08:24:27;;;;;;;5.70;3.80;;;27.50;99.90;;;;;;4949333;29;20645;-89
2022/06/07 08:26:53;;;;;;;6.50;4.03;;;27.70;99.90;;;;;;4948864;29;20032;-89
2022/06/07 08:29:20;;;;;;;7.47;4.22;;;27.90;99.90;;;;;;4949022;29;20028;-88
2022/06/07 08:31:45;;;;;;;11.48;4.18;;;27.90;99.90;;;;;;4949107;29;20043;-88
2022/06/07 08:39:44;;;;;;;5.50;3.70;;;28.10;99.90;;;;;;4945375;29;20127;-89
2022/06/07 08:42:17;;;;;;;6.90;4.00;;;28.10;99.90;;;;;;4946673;29;20492;-89
2022/06/07 08:44:47;;;;;;;8.88;3.35;;;28.20;99.90;;;;;;4950543;29;20075;-88
2022/06/07 08:47:13;;;;;;;8.80;3.25;;;28.50;99.90;;;;;;4958287;28;20117;-86
2022/06/07 08:52:33;;;;;;;7.45;3.17;;;28.60;98.90;;;;;;4976809;28;20038;-88
2022/06/07 08:55:01;;;;;;;7.43;3.33;;;27.30;99.90;;;;;;4977039;28;20032;-87
2022/06/07 09:00:32;;;;;;;7.05;2.83;;;27.90;99.60;;;;;;5607710;23;20351;-91
2022/06/07 09:08:19;;;;;;;4.72;2.08;;;28.10;97.30;;;;;;5320330;23;20030;-91
2022/06/07 09:19:00;;;;;;;5.25;2.33;;;27.90;97.00;;;;;;5426544;23;20062;-92
2022/06/07 09:21:34;;;;;;;5.43;2.40;;;27.70;97.10;;;;;;4993911;28;20061;-91
2022/06/07 09:25:01;;;;;;;7.37;2.30;;;27.80;97.30;;;;;;4997698;28;20054;-91
2022/06/07 10:05:39;;;;;;;5.25;2.38;;;30.70;93.50;;;;;;5062656;23;20034;-89
2022/06/07 10:08:14;;;;;;;8.77;2.60;;;31.10;92.80;;;;;;4999378;28;20047;-88
2022/06/07 10:10:56;;;;;;;2.40;2.20;;;31.10;92.50;;;;;;5000169;28;20038;-89
2022/06/07 10:13:41;;;;;;;7.57;2.58;;;31.60;92.10;;;;;;4996003;28;20031;-88
2022/06/07 10:16:16;;;;;;;4.80;2.35;;;32.50;91.40;;;;;;4978721;28;20127;-89
2022/06/07 10:19:09;;;;;;;5.93;2.42;;;33.90;90.00;;;;;;4977927;28;20091;-90
2022/06/07 10:22:02;;;;;;;9.98;2.72;;;34.90;87.30;;;;;;4979092;28;20034;-87
2022/06/07 10:27:31;;;;;;;4.35;2.85;;;33.50;87.70;;;;;;5033127;23;20035;-87
2022/06/07 10:29:57;;;;;;;4.95;3.13;;;32.30;90.20;;;;;;4944440;28;20027;-88
2022/06/07 10:32:40;;;;;;;5.60;3.30;;;31.00;91.40;;;;;;4960734;28;20051;-91
2022/06/07 10:35:10;;;;;;;4.63;3.63;;;30.70;91.90;;;;;;4951674;28;20043;-92
2022/06/07 10:38:12;;;;;;;5.25;3.42;;;29.80;93.10;;;;;;4951551;29;20071;-90
2022/06/07 10:40:38;;;;;;;9.68;3.65;;;29.10;94.00;;;;;;4902971;29;20095;-91
2022/06/07 10:43:09;;;;;;;8.85;3.50;;;28.70;94.50;;;;;;4944582;29;20032;-91
2022/06/07 10:45:39;;;;;;;4.07;3.42;;;28.50;94.40;;;;;;4936198;29;20035;-91
2022/06/07 10:48:11;;;;;;;5.90;3.22;;;28.30;94.60;;;;;;4947113;29;20036;-91
2022/06/07 10:50:50;;;;;;;5.15;3.70;;;28.10;94.60;;;;;;4958873;28;20027;-91
2022/06/07 10:53:51;;;;;;;5.80;4.13;;;28.00;95.00;;;;;;4931921;29;20032;-91
2022/06/07 10:56:31;;;;;;;8.60;3.53;;;29.00;94.40;;;;;;4944792;28;20067;-91
2022/06/07 10:59:08;;;;;;;9.25;3.63;;;31.90;92.10;;;;;;4958999;28;20039;-91
2022/06/07 11:10:46;;;;;;;5.13;2.85;;;34.70;85.70;;;;;;4996873;28;20208;-90
2022/06/07 11:13:16;;;;;;;4.07;3.67;;;33.80;85.00;;;;;;4997274;28;20037;-91
2022/06/07 11:16:15;;;;;;;4.38;3.17;;;32.80;86.90;;;;;;4996711;28;20026;-91
2022/06/07 11:18:42;;;;;;;5.90;3.63;;;31.40;89.40;;;;;;4979039;28;20025;-90
2022/06/07 11:21:11;;;;;;;5.95;3.42;;;30.40;90.70;;;;;;4979361;28;20027;-91
2022/06/07 11:23:43;;;;;;;5.70;3.60;;;29.70;91.30;;;;;;4995567;28;20042;-89
2022/06/07 11:26:18;;;;;;;7.65;4.35;;;29.10;92.10;;;;;;4995329;28;20031;-91
2022/06/07 11:28:49;;;;;;;4.13;3.42;;;28.60;92.80;;;;;;4997738;28;20092;-91
2022/06/07 11:31:28;;;;;;;6.38;4.05;;;28.20;93.40;;;;;;4994972;28;20031;-92
2022/06/07 11:33:54;;;;;;;4.93;3.60;;;27.80;93.70;;;;;;4977788;28;20030;-91
2022/06/07 11:36:20;;;;;;;10.07;3.20;;;27.30;93.70;;;;;;4980227;28;20037;-89
2022/06/07 11:39:25;;;;;;;7.68;3.75;;;27.10;94.10;;;;;;4996188;28;20043;-91
2022/06/07 11:42:15;;;;;;;6.07;3.40;;;26.70;93.90;;;;;;5023811;23;20067;-90
2022/06/07 11:44:50;;;;;;;3.92;3.38;;;26.20;94.10;;;;;;4974471;28;20026;-90
2022/06/07 11:47:27;;;;;;;;;;;25.90;94.70;;;;;;4989227;28;20015;-90
2022/06/07 11:49:54;;;;;;;4.00;3.55;;;25.90;95.10;;;;;;4969921;28;19910;-90
2022/06/07 11:52:33;;;;;;;5.88;3.45;;;25.90;95.40;;;;;;4989577;28;20086;-90
2022/06/07 11:55:15;;;;;;;7.60;3.50;;;25.90;95.80;;;;;;4990818;28;20030;-91
2022/06/07 11:58:04;;;;;;;6.10;3.88;;;25.70;96.10;;;;;;4980973;28;20043;-90
2022/06/07 12:00:30;;;;;;;10.23;3.53;;;25.50;96.50;;;;;;4994753;28;20041;-89
2022/06/07 12:02:56;;;;;;;5.53;3.70;;;25.10;97.00;;;;;;4978519;28;20285;-90
2022/06/07 12:05:47;;;;;;;6.72;3.58;;;25.00;97.50;;;;;;4979060;28;20031;-92
2022/06/07 12:08:21;;;;;;;5.00;3.60;;;25.00;97.60;;;;;;4997053;28;20030;-92
2022/06/07 12:11:24;;;;;;;5.75;3.33;;;24.80;98.00;;;;;;5001158;23;20039;-92
2022/06/07 12:14:05;;;;;;;6.75;3.67;;;24.60;98.30;;;;;;4984800;23;20070;-90
2022/06/07 12:30:03;;;;;;;7.00;3.83;;;22.70;99.90;;;;;;5295578;23;20110;-91
2022/06/07 12:35:16;;;;;;;5.97;4.00;;;22.60;99.90;;;;;;1099643;26;20241;-90
2022/06/07 12:38:13;;;;;;;7.78;4.20;;;22.50;99.90;;;;;;4986247;28;20091;-91
2022/06/07 12:41:03;;;;;;;;;;;;;;;;;;;;;
2022/06/07 12:43:51;;;;;;;5.70;4.30;;;22.20;99.90;;;;;;4957444;28;20038;-91
2022/06/07 12:46:18;;;;;;;7.70;4.40;;;22.00;99.90;;;;;;4957906;29;20031;-90
2022/06/07 12:48:46;;;;;;;7.90;4.53;;;21.80;99.90;;;;;;4942437;29;20016;-90
2022/06/07 12:51:34;;;;;;;8.37;4.83;;;21.70;99.90;;;;;;4956017;29;20024;-91
2022/06/07 12:54:17;;;;;;;5.05;4.28;;;21.70;99.90;;;;;;4938033;29;20027;-89
2022/06/07 12:56:46;;;;;;;6.95;4.70;;;21.70;99.90;;;;;;4958671;29;20051;-91
2022/06/07 12:59:30;;;;;;;8.30;4.05;;;21.70;99.90;;;;;;4960346;29;20100;-91
2022/06/07 13:01:57;;;;;;;10.93;4.82;;;21.70;99.90;;;;;;4962913;29;20103;-89
2022/06/07 13:04:55;;;;;;;7.55;4.57;;;21.60;99.90;;;;;;4962731;29;20008;-90
2022/06/07 13:07:29;;;;;;;6.55;4.93;;;21.60;99.90;;;;;;4946862;29;20107;-89
2022/06/07 13:10:04;;;;;;;9.27;5.15;;;21.50;99.90;;;;;;4962929;29;20047;-91
2022/06/07 13:12:38;;;;;;;7.65;4.70;;;21.50;99.90;;;;;;4962279;29;20055;-90
2022/06/07 13:15:17;;;;;;;7.05;4.75;;;21.50;99.90;;;;;;4946211;29;20095;-90
2022/06/07 13:18:15;;;;;;;6.88;5.03;;;21.40;99.90;;;;;;5419387;23;20028;-91
2022/06/07 13:23:17;;;;;;;6.75;4.95;;;21.60;99.90;;;;;;5353846;23;20050;-85
2022/06/07 13:25:43;;;;;;;7.82;5.80;;;21.50;99.90;;;;;;4988918;28;20102;-85
2022/06/07 13:28:22;;;;;;;8.32;5.55;;;21.40;99.90;;;;;;4985638;28;20030;-86
2022/06/07 13:30:50;;;;;;;8.18;5.50;;;21.30;99.90;;;;;;4988634;28;20027;-85
2022/06/07 13:33:26;;;;;;;8.63;5.43;;;21.10;99.90;;;;;;4986313;28;20010;-87
2022/06/07 13:36:00;;;;;;;8.90;5.13;;;21.10;99.90;;;;;;4984628;28;20022;-85
2022/06/07 13:38:37;;;;;;;7.90;5.25;;;21.00;99.90;;;;;;4987932;28;20110;-84
2022/06/07 13:41:18;;;;;;;8.27;5.50;;;20.80;99.90;;;;;;4993506;28;20135;-85
2022/06/07 13:43:56;;;;;;;5.78;4.88;;;20.70;99.90;;;;;;4992850;28;20057;-84
2022/06/07 13:46:29;;;;;;;8.35;5.03;;;20.60;99.90;;;;;;4987189;28;20054;-85
2022/06/07 13:55:27;;;;;;;7.43;5.70;;;20.50;99.90;;;;;;4989123;28;20030;-86
2022/06/07 13:57:53;;;;;;;12.20;6.22;;;20.50;99.90;;;;;;4992897;28;20042;-85
2022/06/07 14:00:19;;;;;;;8.95;5.80;;;20.30;99.90;;;;;;4991063;28;20023;-85
2022/06/07 14:02:47;;;;;;;13.07;6.93;;;20.20;99.90;;;;;;4988227;28;20099;-84
2022/06/07 14:05:14;;;;;;;13.75;7.18;;;20.10;99.90;;;;;;4986069;28;20029;-87
2022/06/07 14:07:40;;;;;;;16.77;7.28;;;19.90;99.90;;;;;;4989744;28;20529;-86
2022/06/07 14:10:10;;;;;;;10.85;7.32;;;19.90;99.90;;;;;;4991608;28;20014;-87
2022/06/07 14:12:36;;;;;;;8.70;6.93;;;19.70;99.90;;;;;;4992534;23;20090;-80
2022/06/07 14:15:01;;;;;;;12.70;7.38;;;19.50;99.90;;;;;;4968505;28;20388;-82
2022/06/07 14:17:27;;;;;;;15.23;8.35;;;19.30;99.90;;;;;;4944238;29;20146;-80
2022/06/07 14:19:55;;;;;;;11.88;8.07;;;19.30;99.90;;;;;;4959927;29;20019;-81
2022/06/07 14:22:24;;;;;;;15.95;8.73;;;19.20;99.90;;;;;;4943903;29;20047;-81
2022/06/07 14:24:51;;;;;;;14.30;8.20;;;19.10;99.90;;;;;;4947152;29;20024;-79
2022/06/07 14:27:22;;;;;;;11.30;8.48;;;19.10;99.90;;;;;;4948982;29;20448;-80
2022/06/07 14:29:49;;;;;;;13.70;8.93;;;19.00;99.90;;;;;;4951367;29;20432;-81
2022/06/07 14:32:27;;;;;;;9.85;7.78;;;19.00;99.90;;;;;;4950839;29;20035;-81
2022/06/07 14:34:56;;;;;;;9.45;7.32;;;19.10;99.90;;;;;;4951084;29;20047;-79
2022/06/07 14:37:24;;;;;;;11.18;8.23;;;19.10;99.90;;;;;;4946313;29;20193;-82
2022/06/07 14:39:50;;;;;;;11.85;7.43;;;19.00;99.90;;;;;;4943539;29;20095;-82
2022/06/07 14:42:17;;;;;;;11.15;7.10;;;19.00;99.90;;;;;;4941863;29;20031;-82
2022/06/07 14:44:44;;;;;;;11.80;7.78;;;19.00;99.90;;;;;;4950461;29;20027;-79
2022/06/07 14:47:21;;;;;;;13.80;8.55;;;19.00;99.90;;;;;;4945166;29;20110;-82
2022/06/07 14:49:50;;;;;;;11.75;6.85;;;19.10;99.90;;;;;;4942654;29;20035;-81
2022/06/07 14:52:17;;;;;;;10.80;8.45;;;19.10;99.90;;;;;;4949601;29;20024;-81
2022/06/07 14:54:44;;;;;;;11.57;7.57;;;19.20;99.90;;;;;;4951857;29;20031;-78
2022/06/07 14:57:28;;;;;;;14.23;7.07;;;19.20;99.90;;;;;;4950825;29;20028;-79